Latest Weather Observations for Cape Willoughby

IDS60801

Issued at 5:02 am CST Wednesday 27 July 2016 (issued every 30 minutes, with the page automatically refreshed every 10 minutes)

About weather observations | Map of weather stations | Latest weather observations for SA | Other Formats
Station Details ID: 022803 Name: CAPE WILLOUGHBY Lat: -35.84 Lon: 138.13 Height: 55.0 m
Data from the previous 72 hours. | See also: Recent months at Cape Willoughby
Date/Time
CST
Temp
°C
App
Temp
°C
Dew
Point
°C
Rel
Hum
%
Delta-T
°C
Wind Press
QNH
hPa
Press
MSL
hPa
Rain since
9am
mm
Dir  Spd
km/h
Gust
km/h
Spd
kts
Gust
kts
27/05:00am 11.3 2.0 5.0 65 2.9 SSW 43 57 23 31 1016.6 1016.7 12.2
27/04:30am 11.3 1.7 6.2 71 2.4 SSW 46 59 25 32 1016.4 1016.5 12.2
27/04:00am 11.3 1.9 5.4 67 2.7 SSW 44 59 24 32 1015.7 1015.8 12.2
27/03:30am 11.4 0.8 5.1 65 2.9 SW 50 65 27 35 1015.2 1015.3 12.2
27/03:00am 11.4 0.5 5.3 66 2.8 SSW 52 67 28 36 1014.6 1014.6 12.2
27/02:33am 11.3 2.7 8.7 84 1.3 SW 44 63 24 34 1014.4 1014.4 12.2
27/02:30am 10.9 1.8 8.5 85 1.2 SW 46 61 25 33 1014.5 1014.5 12.2
27/02:25am 10.7 0.9 8.5 86 1.1 SW 50 69 27 37 1014.6 1014.6 12.0
27/02:00am 11.4 2.0 8.6 83 1.4 SW 48 65 26 35 1013.9 1013.9 12.0
27/01:30am 11.2 0.2 8.4 83 1.4 SW 56 76 30 41 1013.0 1013.0 12.0
27/01:21am 11.9 2.5 8.9 82 1.5 SW 48 70 26 38 1012.6 1012.6 11.8
27/01:00am 11.5 3.4 8.5 82 1.5 SW 41 63 22 34 1012.3 1012.3 11.8
27/12:59am 11.3 3.6 8.5 83 1.4 SW 39 63 21 34 1012.2 1012.2 11.8
27/12:38am 10.9 4.0 8.7 86 1.1 WSW 35 56 19 30 1012.6 1012.6 11.8
27/12:30am 11.1 4.1 8.3 83 1.4 WSW 35 46 19 25 1012.5 1012.5 11.2
27/12:07am 11.9 4.6 7.4 74 2.2 WSW 35 57 19 31 1011.9 1011.9 10.6
27/12:00am 12.0 5.1 7.1 72 2.4 WSW 33 44 18 24 1011.7 1011.7 10.6
 
Date/Time
CST
Temp
°C
App
Temp
°C
Dew
Point
°C
Rel
Hum
%
Delta-T
°C
Wind Press
QNH
hPa
Press
MSL
hPa
Rain since
9am
mm
Dir  Spd
km/h
Gust
km/h
Spd
kts
Gust
kts
26/11:30pm 12.0 3.8 6.7 70 2.5 WSW 39 50 21 27 1011.2 1011.2 10.6
26/11:00pm 12.0 4.8 7.5 74 2.2 WSW 35 46 19 25 1011.0 1011.0 10.6
26/10:34pm 11.5 4.4 8.0 79 1.7 WSW 35 56 19 30 1010.5 1010.5 10.6
26/10:30pm 11.6 4.9 8.3 80 1.6 WSW 33 46 18 25 1010.6 1010.6 10.6
26/10:00pm 10.7 1.9 8.1 84 1.3 WSW 44 57 24 31 1010.1 1010.1 10.6
26/09:47pm 11.8 4.7 7.9 77 1.9 WSW 35 54 19 29 1009.9 1009.9 10.6
26/09:30pm 11.5 4.3 7.6 77 1.9 WSW 35 48 19 26 1009.6 1009.6 10.6
26/09:00pm 10.9 4.2 8.1 83 1.4 WSW 33 50 18 27 1009.3 1009.3 10.6
26/08:30pm 10.9 5.7 7.4 79 1.7 W 24 44 13 24 1008.8 1008.8 9.8
26/08:12pm 11.4 5.6 8.1 80 1.6 W 28 56 15 30 1008.4 1008.4 9.8
26/08:00pm 10.0 5.3 7.8 86 1.1 WNW 22 30 12 16 1008.2 1008.2 9.8
26/07:30pm 10.5 2.9 7.6 82 1.4 W 37 56 20 30 1007.4 1007.4 9.8
26/07:14pm 9.9 3.2 7.3 84 1.2 W 32 52 17 28 1007.0 1007.0 9.8
26/07:00pm 10.0 3.2 7.8 86 1.1 W 33 48 18 26 1006.7 1006.7 9.8
26/06:30pm 9.8 2.7 7.9 88 0.9 W 35 46 19 25 1006.2 1006.2 9.8
26/06:00pm 10.0 2.8 7.8 86 1.1 W 35 50 19 27 1005.5 1005.5 9.4
26/05:39pm 9.9 2.7 7.7 86 1.1 W 35 56 19 30 1005.2 1005.2 9.4
26/05:30pm 10.1 2.6 7.9 86 1.1 W 37 52 20 28 1004.9 1004.9 9.4
26/05:12pm 10.1 2.6 7.9 86 1.1 W 37 57 20 31 1004.8 1004.8 9.4
26/05:00pm 10.4 3.0 8.2 86 1.1 W 37 52 20 28 1004.5 1004.5 9.4
26/04:30pm 10.6 1.3 9.2 91 0.7 WNW 48 67 26 36 1004.3 1004.3 9.4
26/04:29pm 10.7 1.4 9.3 91 0.7 NW 48 67 26 36 1004.4 1004.4 9.4
26/04:09pm 10.7 2.8 9.5 92 0.6 NW 41 59 22 32 1004.3 1004.3 7.6
26/04:00pm 10.9 3.0 9.3 90 0.8 NW 41 57 22 31 1004.2 1004.2 5.4
26/03:30pm 10.8 0.4 9.2 90 0.8 NNW 54 82 29 44 1004.7 1004.7 4.6
26/03:20pm 10.6 -0.3 8.9 89 0.8 NNW 56 93 30 50 1004.9 1004.9 4.2
26/03:02pm 10.6 2.1 8.4 86 1.1 NNW 43 67 23 36 1005.3 1005.3 3.8
26/03:00pm 10.7 2.6 8.6 87 1.0 NNW 41 57 22 31 1005.4 1005.4 3.8
26/02:32pm 10.6 0.7 8.4 86 1.1 NW 50 70 27 38 1006.5 1006.5 3.8
26/02:30pm 10.6 -0.1 8.2 85 1.2 NW 54 70 29 38 1006.6 1006.6 3.8
26/02:00pm 10.9 -0.2 8.0 82 1.4 NW 56 83 30 45 1006.9 1006.9 3.4
26/01:55pm 10.8 0.9 8.2 84 1.3 NW 50 78 27 42 1006.9 1006.9 3.4
26/01:54pm 10.8 1.3 8.2 84 1.3 NW 48 70 26 38 1006.9 1006.9 3.4
26/01:43pm 10.7 4.1 8.5 86 1.1 NW 33 54 18 29 1007.5 1007.5 3.0
26/01:30pm 10.2 2.8 8.3 88 0.9 NW 37 50 20 27 1007.9 1007.9 2.6
26/01:16pm 10.3 1.1 8.1 86 1.1 NW 46 67 25 36 1008.1 1008.1 1.6
26/01:00pm 10.6 1.4 7.8 83 1.4 NW 46 65 25 35 1008.5 1008.5 0.6
26/12:30pm 11.7 0.8 7.4 75 2.1 NNW 54 83 29 45 1008.5 1008.5 0.0
26/12:00pm 11.7 2.5 7.8 77 1.9 NNW 46 65 25 35 1009.8 1009.8 0.0
26/11:40am 11.5 1.4 7.6 77 1.9 NNW 50 72 27 39 1010.1 1010.1 0.0
26/11:30am 11.5 2.1 7.2 75 2.1 NNW 46 63 25 34 1010.7 1010.7 0.0
26/11:11am 11.6 2.6 7.1 74 2.2 NNW 44 65 24 35 1011.0 1011.0 0.0
26/11:00am 11.5 3.0 7.0 74 2.2 NNW 41 56 22 30 1011.3 1011.3 0.0
26/10:30am 11.3 3.3 7.4 77 1.9 NW 39 57 21 31 1011.9 1011.9 0.0
26/10:22am 10.7 4.8 7.4 80 1.6 NW 28 50 15 27 1012.2 1012.2 0.0
26/10:00am 9.4 6.2 6.7 83 1.3 NW 13 17 7 9 1012.5 1012.5 0.0
26/09:30am 9.2 5.5 6.5 83 1.3 WNW 15 20 8 11 1012.8 1012.8 0.0
26/09:00am 8.7 4.2 6.0 83 1.2 NW 19 22 10 12 1013.3 1013.3 8.4
26/08:30am 8.5 2.9 5.3 80 1.4 WNW 24 33 13 18 1013.4 1013.4 8.4
26/08:00am 8.4 3.0 4.6 77 1.7 NW 22 28 12 15 1013.4 1013.4 8.4
26/07:30am 7.3 1.7 3.7 78 1.5 NW 22 26 12 14 1013.4 1013.4 8.4
26/07:00am 7.1 1.6 3.9 80 1.4 NW 22 24 12 13 1013.5 1013.5 8.4
26/06:30am 6.7 0.7 3.3 79 1.4 WNW 24 28 13 15 1013.8 1013.8 8.4
26/06:00am 6.7 0.7 3.1 78 1.5 WNW 24 28 13 15 1013.9 1013.9 8.4
26/05:30am 6.8 0.8 3.1 77 1.6 WNW 24 30 13 16 1014.0 1014.0 8.4
26/05:00am 6.6 0.5 3.0 78 1.5 WNW 24 26 13 14 1013.7 1013.7 8.4
26/04:30am 6.7 1.0 3.1 78 1.5 WNW 22 28 12 15 1013.7 1013.7 8.4
26/04:00am 6.9 0.9 3.5 79 1.4 WNW 24 28 13 15 1014.0 1014.0 8.4
26/03:30am 6.9 0.9 3.5 79 1.4 WNW 24 28 13 15 1014.2 1014.2 8.4
26/03:00am 7.1 1.2 3.9 80 1.4 WNW 24 30 13 16 1014.5 1014.5 8.4
26/02:30am 7.1 0.5 4.1 81 1.3 WNW 28 37 15 20 1014.8 1014.8 8.4
26/02:00am 7.3 1.4 4.1 80 1.4 WNW 24 30 13 16 1014.9 1014.9 8.4
26/01:30am 8.0 0.5 4.2 77 1.7 W 33 44 18 24 1014.9 1014.9 8.2
26/01:00am 7.1 0.4 3.9 80 1.4 W 28 39 15 21 1015.0 1015.0 8.2
26/12:30am 7.0 1.5 4.0 81 1.3 WNW 22 28 12 15 1015.3 1015.4 8.2
26/12:00am 7.6 0.7 4.6 81 1.3 WNW 30 39 16 21 1015.4 1015.5 8.2
 
Date/Time
CST
Temp
°C
App
Temp
°C
Dew
Point
°C
Rel
Hum
%
Delta-T
°C
Wind Press
QNH
hPa
Press
MSL
hPa
Rain since
9am
mm
Dir  Spd
km/h
Gust
km/h
Spd
kts
Gust
kts
25/11:30pm 7.3 1.9 4.4 82 1.3 WNW 22 30 12 16 1015.7 1015.8 8.2
25/11:00pm 7.7 0.4 4.5 80 1.4 W 32 43 17 23 1015.3 1015.4 8.2
25/10:30pm 7.7 1.4 3.7 76 1.7 WNW 26 35 14 19 1015.5 1015.6 8.2
25/10:00pm 7.7 -0.3 3.7 76 1.7 WNW 35 48 19 26 1015.2 1015.3 8.2
25/09:51pm 7.9 0.9 3.9 76 1.7 WNW 30 48 16 26 1015.2 1015.3 8.2
25/09:30pm 7.3 1.7 3.5 77 1.6 NW 22 26 12 14 1014.8 1014.8 8.2
25/09:00pm 7.9 1.3 4.3 78 1.6 WNW 28 35 15 19 1014.9 1014.9 8.2
25/08:30pm 7.6 1.8 4.4 80 1.4 W 24 32 13 17 1014.8 1014.8 8.2
25/08:00pm 7.8 1.7 4.9 82 1.3 W 26 37 14 20 1014.6 1014.6 8.2
25/07:30pm 8.1 1.6 4.5 78 1.6 WNW 28 39 15 21 1014.0 1014.0 8.0
25/07:07pm 9.0 2.5 4.6 74 2.0 WNW 28 46 15 25 1013.9 1013.9 8.0
25/07:00pm 9.4 2.7 3.8 68 2.5 W 28 44 15 24 1013.7 1013.7 8.0
25/06:30pm 9.6 4.1 3.8 67 2.5 W 22 33 12 18 1013.1 1013.1 8.0
25/06:00pm 10.1 1.6 3.2 62 3.0 W 37 50 20 27 1012.5 1012.5 8.0
25/05:30pm 10.6 1.0 3.6 62 3.1 WSW 43 57 23 31 1011.9 1011.9 8.0
25/05:00pm 10.4 3.0 5.2 70 2.4 W 33 46 18 25 1011.5 1011.5 8.0
25/04:30pm 9.9 0.4 6.8 81 1.5 WSW 46 61 25 33 1011.0 1011.0 8.0
25/04:11pm 11.1 3.3 6.8 75 2.0 W 37 65 20 35 1010.5 1010.5 8.0
25/04:00pm 11.2 2.7 6.9 75 2.0 WSW 41 57 22 31 1010.3 1010.3 8.0
25/03:30pm 11.5 4.0 8.0 79 1.7 W 37 52 20 28 1010.0 1010.0 8.0
25/03:00pm 11.2 2.8 8.8 85 1.2 WSW 43 69 23 37 1009.8 1009.8 8.0
25/02:32pm 10.7 2.1 8.8 88 0.9 WSW 44 83 24 45 1009.6 1009.6 7.6
25/02:30pm 11.0 2.7 9.3 89 0.9 WSW 43 56 23 30 1009.7 1009.7 7.6
25/02:00pm 11.1 2.8 9.4 89 0.9 WSW 43 59 23 32 1009.3 1009.3 7.2
25/01:30pm 11.1 0.2 9.5 90 0.8 W 57 87 31 47 1008.9 1008.9 6.6
25/01:19pm 11.8 4.7 9.7 87 1.1 W 37 89 20 48 1008.6 1008.6 6.2
25/01:15pm 12.4 7.0 10.8 90 0.8 WNW 30 48 16 26 1008.7 1008.7 5.8
25/01:00pm 12.8 5.0 11.0 89 0.9 WNW 43 57 23 31 1008.4 1008.4 2.6
25/12:30pm 12.0 3.9 10.6 91 0.7 NW 44 65 24 35 1009.0 1009.0 2.0
25/12:00pm 12.6 3.6 10.3 86 1.2 NW 48 72 26 39 1008.7 1008.7 0.4
25/11:39am 12.7 3.7 10.4 86 1.2 NW 48 69 26 37 1009.2 1009.2 0.4
25/11:30am 12.1 3.1 10.3 89 0.9 NW 48 65 26 35 1009.6 1009.6 0.4
25/11:07am 12.4 3.9 10.5 88 1.0 NW 46 69 25 37 1010.0 1010.0 0.4
25/11:00am 11.8 3.5 10.2 90 0.8 NW 44 59 24 32 1010.3 1010.3 0.4
25/10:30am 11.3 2.5 9.6 89 0.9 NW 46 61 25 33 1010.7 1010.7 0.2
25/10:07am 11.3 2.7 9.0 86 1.1 NW 44 63 24 34 1011.1 1011.1 0.2
25/10:00am 12.1 3.7 8.8 80 1.6 NW 43 56 23 30 1011.1 1011.1 0.0
25/09:30am 12.2 4.4 8.1 76 2.0 NW 39 57 21 31 1011.2 1011.2 0.0
25/09:21am 12.4 4.9 8.1 75 2.1 NW 37 57 20 31 1011.1 1011.1 0.0
25/09:00am 11.7 4.9 7.8 77 1.9 NW 33 43 18 23 1011.3 1011.3 21.2
25/08:30am 11.1 5.7 8.0 81 1.5 NW 26 37 14 20 1012.1 1012.1 21.2
25/08:00am 9.8 5.5 7.7 87 1.0 NW 20 26 11 14 1012.3 1012.3 21.2
25/07:30am 9.2 5.0 7.3 88 0.9 NW 19 24 10 13 1012.4 1012.4 21.2
25/07:00am 9.0 4.5 7.0 87 0.9 NW 20 26 11 14 1012.5 1012.5 21.2
25/06:30am 8.6 3.6 6.4 86 1.0 NW 22 28 12 15 1012.6 1012.6 21.2
25/06:00am 8.7 3.3 6.3 85 1.1 WNW 24 32 13 17 1012.7 1012.7 21.2
25/05:30am 8.4 3.3 6.2 86 1.0 NW 22 30 12 16 1012.6 1012.6 21.2
25/05:00am 7.9 2.7 5.5 85 1.1 WNW 22 28 12 15 1012.7 1012.7 21.2
25/04:30am 7.7 2.1 5.5 86 1.0 NW 24 32 13 17 1012.9 1012.9 21.2
25/04:00am 7.6 2.7 5.2 85 1.1 WNW 20 28 11 15 1012.8 1012.8 21.2
25/03:30am 7.6 1.9 5.1 84 1.1 WNW 24 26 13 14 1012.9 1012.9 21.2
25/03:00am 8.3 2.4 5.6 83 1.2 W 26 37 14 20 1013.0 1013.0 21.2
25/02:30am 8.3 1.2 5.6 83 1.2 WNW 32 39 17 21 1013.1 1013.1 21.2
25/02:00am 8.6 3.4 5.4 80 1.4 WNW 22 28 12 15 1013.0 1013.0 21.2
25/01:30am 10.5 3.6 4.6 67 2.7 W 30 43 16 23 1012.9 1012.9 21.2
25/01:00am 10.4 3.1 5.4 71 2.3 WSW 33 50 18 27 1012.6 1012.6 21.2
25/12:30am 10.7 2.8 6.3 74 2.1 WSW 37 50 20 27 1012.2 1012.2 21.2
25/12:25am 10.3 2.0 5.9 74 2.0 WSW 39 57 21 31 1012.2 1012.2 21.2
25/12:00am 10.2 2.0 6.4 77 1.8 WSW 39 56 21 30 1012.1 1012.1 21.2
 
Date/Time
CST
Temp
°C
App
Temp
°C
Dew
Point
°C
Rel
Hum
%
Delta-T
°C
Wind Press
QNH
hPa
Press
MSL
hPa
Rain since
9am
mm
Dir  Spd
km/h
Gust
km/h
Spd
kts
Gust
kts
24/11:42pm 9.8 2.9 7.1 83 1.3 W 33 52 18 28 1012.0 1012.0 21.2
24/11:30pm 9.8 2.1 7.2 84 1.2 WSW 37 50 20 27 1011.9 1011.9 21.2
24/11:15pm 9.6 2.0 7.5 87 1.0 WSW 37 63 20 34 1011.7 1011.7 20.6
24/11:10pm 9.4 2.7 7.3 87 1.0 W 32 46 17 25 1011.6 1011.6 20.2
24/11:00pm 9.7 2.5 7.5 86 1.0 W 35 50 19 27 1011.5 1011.5 20.2
24/10:58pm 9.8 2.2 7.6 86 1.1 WSW 37 50 20 27 1011.6 1011.6 20.2
24/10:30pm 9.6 1.3 7.9 89 0.8 WSW 41 61 22 33 1011.2 1011.2 19.6
24/10:24pm 10.2 3.5 8.3 88 0.9 WSW 33 61 18 33 1011.2 1011.2 18.8
24/10:00pm 9.5 -0.6 7.6 88 0.9 WSW 50 67 27 36 1010.6 1010.6 18.6
24/09:44pm 9.2 2.1 8.1 93 0.5 W 35 65 19 35 1010.7 1010.7 17.6
24/09:43pm 9.1 2.4 8.0 93 0.5 W 33 56 18 30 1010.8 1010.8 17.6
24/09:38pm 9.1 1.6 7.9 92 0.6 W 37 56 20 30 1010.4 1010.4 16.4
24/09:30pm 9.1 0.4 7.9 92 0.6 W 43 57 23 31 1010.2 1010.2 16.0
24/09:00pm 9.2 1.7 8.0 92 0.6 W 37 56 20 30 1010.0 1010.0 14.4
24/08:30pm 9.5 2.0 8.1 91 0.7 W 37 57 20 31 1009.3 1009.3 10.0
24/08:00pm 9.8 0.3 8.4 91 0.7 W 48 74 26 40 1008.8 1008.8 8.8
24/07:31pm 10.1 1.9 8.2 88 0.9 W 41 67 22 36 1008.0 1008.0 7.4
24/07:30pm 10.2 2.0 8.3 88 0.9 W 41 56 22 30 1008.1 1008.1 7.4
24/07:09pm 10.6 1.4 8.2 85 1.2 W 46 67 25 36 1007.4 1007.4 7.4
24/07:00pm 10.4 2.7 8.5 88 0.9 W 39 56 21 30 1007.2 1007.2 7.2
24/06:30pm 9.9 2.1 8.2 89 0.8 W 39 61 21 33 1006.8 1006.8 7.0
24/06:04pm 10.3 2.1 8.1 86 1.1 W 41 59 22 32 1006.0 1006.0 7.0
24/06:00pm 10.4 1.6 8.2 86 1.1 W 44 59 24 32 1005.8 1005.8 7.0
24/05:30pm 10.3 1.5 8.1 86 1.1 W 44 63 24 34 1005.1 1005.1 7.0
24/05:22pm 10.2 1.6 8.1 87 1.0 W 43 63 23 34 1004.9 1004.9 7.0
24/05:00pm 9.7 2.2 7.8 88 0.9 WNW 37 52 20 28 1004.7 1004.7 7.0
24/04:51pm 9.5 2.7 7.6 88 0.9 WNW 33 52 18 28 1004.8 1004.8 6.8
24/04:30pm 9.8 0.8 7.1 83 1.3 W 44 61 24 33 1004.8 1004.8 5.6
24/04:00pm 9.8 0.8 7.2 84 1.2 WNW 44 59 24 32 1004.0 1004.0 5.6
24/03:40pm 9.8 3.9 7.4 85 1.1 WNW 28 50 15 27 1004.2 1004.2 5.2
24/03:30pm 9.7 4.1 7.1 84 1.2 WNW 26 39 14 21 1004.4 1004.4 4.6
24/03:22pm 9.4 2.6 6.7 83 1.3 NW 32 50 17 27 1004.2 1004.2 4.6
24/03:00pm 9.8 2.3 6.3 79 1.6 WNW 35 46 19 25 1004.2 1004.2 4.0
24/02:42pm 10.0 0.0 6.0 76 1.9 WNW 48 70 26 38 1004.2 1004.2 4.0
24/02:30pm 10.8 2.1 5.8 71 2.3 WNW 41 59 22 32 1004.3 1004.3 4.0
24/02:00pm 11.8 3.7 5.4 65 3.0 WNW 37 56 20 30 1004.1 1004.1 4.0
24/01:36pm 11.7 3.7 5.6 66 2.8 W 37 56 20 30 1004.5 1004.5 4.0
24/01:30pm 11.6 2.8 5.7 67 2.8 WNW 41 57 22 31 1004.5 1004.5 4.0
24/01:00pm 10.7 3.7 7.0 78 1.8 W 33 41 18 22 1004.7 1004.7 4.0
24/12:46pm 11.1 5.0 6.6 74 2.1 WNW 28 46 15 25 1004.8 1004.8 3.0
24/12:30pm 11.4 4.0 6.7 73 2.2 WNW 35 44 19 24 1004.8 1004.8 3.0
24/12:00pm 10.5 4.0 6.5 76 1.9 NW 30 43 16 23 1005.0 1005.0 3.0
24/11:30am 9.3 3.6 6.7 84 1.2 NW 26 33 14 18 1005.5 1005.5 3.0
24/11:00am 8.2 1.6 6.2 87 0.9 WNW 30 48 16 26 1005.7 1005.7 3.0
24/10:30am 8.3 2.5 6.3 87 0.9 WNW 26 33 14 18 1005.5 1005.5 2.2
24/10:00am 8.2 2.8 6.5 89 0.8 NW 24 30 13 16 1005.3 1005.3 1.4
24/09:30am 7.4 1.5 5.9 90 0.7 WNW 26 35 14 19 1004.9 1004.9 1.4
24/09:29am 7.5 1.3 6.0 90 0.7 WNW 28 37 15 20 1004.9 1004.9 1.4
24/09:00am 7.7 -1.9 6.2 90 0.7 W 46 69 25 37 1004.7 1004.7 7.8
24/08:38am 9.4 -4.1 6.7 83 1.3 NNW 67 95 36 51 1004.1 1004.1 5.6
24/08:30am 11.0 -2.9 9.1 88 1.0 NNW 72 93 39 50 1002.9 1002.9 5.2
24/08:00am 11.0 -2.0 8.9 87 1.0 NNW 67 91 36 49 1003.3 1003.3 5.2
24/07:30am 10.8 -2.5 9.2 90 0.8 NNW 69 93 37 50 1003.5 1003.5 5.0
24/07:00am 10.5 -2.0 9.4 93 0.6 NNW 65 83 35 45 1003.6 1003.6 4.8
24/06:50am 10.4 -2.1 9.3 93 0.5 NNW 65 83 35 45 1004.0 1004.0 4.8
24/06:30am 10.1 -3.2 8.9 92 0.6 NNW 69 83 37 45 1004.4 1004.4 4.6
24/06:00am 10.1 -2.5 8.9 92 0.6 NNW 65 80 35 43 1004.9 1004.9 4.4
24/05:30am 10.2 -2.5 8.5 89 0.8 NNW 65 80 35 43 1005.3 1005.3 4.0

Other Formats:

Comma delimited format used in spreadsheet applications
http://www.bom.gov.au/fwo/IDS60801/IDS60801.94822.axf

JavaScript Object Notation format (JSON) in row-major order
http://www.bom.gov.au/fwo/IDS60801/IDS60801.94822.json